sensor_id;sensor_type;location;lat;lon;timestamp;temperature;humidity
65478;SHT31;53678;39.642;22.430;2024-02-16T00:01:33;7.11;78.09
65478;SHT31;53678;39.642;22.430;2024-02-16T00:03:58;7.18;77.91
65478;SHT31;53678;39.642;22.430;2024-02-16T00:06:24;7.14;77.45
65478;SHT31;53678;39.642;22.430;2024-02-16T00:08:50;7.07;77.74
65478;SHT31;53678;39.642;22.430;2024-02-16T00:11:17;7.04;77.74
65478;SHT31;53678;39.642;22.430;2024-02-16T00:13:42;7.11;77.52
65478;SHT31;53678;39.642;22.430;2024-02-16T00:16:08;7.05;77.67
65478;SHT31;53678;39.642;22.430;2024-02-16T00:18:33;7.02;77.67
65478;SHT31;53678;39.642;22.430;2024-02-16T00:20:59;7.08;77.36
65478;SHT31;53678;39.642;22.430;2024-02-16T00:23:25;7.07;77.51
65478;SHT31;53678;39.642;22.430;2024-02-16T00:25:51;7.12;77.29
65478;SHT31;53678;39.642;22.430;2024-02-16T00:28:16;7.01;77.28
65478;SHT31;53678;39.642;22.430;2024-02-16T00:30:42;7.11;77.38
65478;SHT31;53678;39.642;22.430;2024-02-16T00:33:08;6.99;76.99
65478;SHT31;53678;39.642;22.430;2024-02-16T00:35:33;6.95;77.16
65478;SHT31;53678;39.642;22.430;2024-02-16T00:38:00;6.97;77.33
65478;SHT31;53678;39.642;22.430;2024-02-16T00:40:25;6.74;77.40
65478;SHT31;53678;39.642;22.430;2024-02-16T00:42:55;6.81;77.39
65478;SHT31;53678;39.642;22.430;2024-02-16T00:45:20;6.66;77.80
65478;SHT31;53678;39.642;22.430;2024-02-16T00:47:46;6.64;78.25
65478;SHT31;53678;39.642;22.430;2024-02-16T00:50:11;6.74;78.03
65478;SHT31;53678;39.642;22.430;2024-02-16T00:52:38;6.61;77.64
65478;SHT31;53678;39.642;22.430;2024-02-16T00:55:05;6.61;77.97
65478;SHT31;53678;39.642;22.430;2024-02-16T00:57:30;6.63;77.90
65478;SHT31;53678;39.642;22.430;2024-02-16T00:59:56;6.76;77.64
65478;SHT31;53678;39.642;22.430;2024-02-16T01:02:22;6.88;77.34
65478;SHT31;53678;39.642;22.430;2024-02-16T01:04:48;6.77;77.18
65478;SHT31;53678;39.642;22.430;2024-02-16T01:07:15;6.80;77.41
65478;SHT31;53678;39.642;22.430;2024-02-16T01:09:41;6.63;78.05
65478;SHT31;53678;39.642;22.430;2024-02-16T01:12:06;6.63;78.98
65478;SHT31;53678;39.642;22.430;2024-02-16T01:14:32;6.70;79.54
65478;SHT31;53678;39.642;22.430;2024-02-16T01:16:58;6.67;79.11
65478;SHT31;53678;39.642;22.430;2024-02-16T01:19:23;6.77;79.12
65478;SHT31;53678;39.642;22.430;2024-02-16T01:21:49;6.70;78.88
65478;SHT31;53678;39.642;22.430;2024-02-16T01:24:19;6.44;79.72
65478;SHT31;53678;39.642;22.430;2024-02-16T01:26:46;6.46;80.67
65478;SHT31;53678;39.642;22.430;2024-02-16T01:29:12;6.60;79.35
65478;SHT31;53678;39.642;22.430;2024-02-16T01:31:37;6.74;78.94
65478;SHT31;53678;39.642;22.430;2024-02-16T01:34:03;6.92;78.27
65478;SHT31;53678;39.642;22.430;2024-02-16T01:36:29;6.97;78.10
65478;SHT31;53678;39.642;22.430;2024-02-16T01:38:54;6.99;77.66
65478;SHT31;53678;39.642;22.430;2024-02-16T01:41:20;7.02;77.13
65478;SHT31;53678;39.642;22.430;2024-02-16T01:43:46;7.14;76.36
65478;SHT31;53678;39.642;22.430;2024-02-16T01:46:11;7.19;75.85
65478;SHT31;53678;39.642;22.430;2024-02-16T01:48:37;7.30;74.88
65478;SHT31;53678;39.642;22.430;2024-02-16T01:51:07;7.25;74.78
65478;SHT31;53678;39.642;22.430;2024-02-16T01:53:35;7.30;74.43
65478;SHT31;53678;39.642;22.430;2024-02-16T01:56:02;7.33;74.15
65478;SHT31;53678;39.642;22.430;2024-02-16T01:58:28;7.36;73.82
65478;SHT31;53678;39.642;22.430;2024-02-16T02:00:54;7.38;73.82
65478;SHT31;53678;39.642;22.430;2024-02-16T02:03:20;7.35;73.69
65478;SHT31;53678;39.642;22.430;2024-02-16T02:05:46;7.30;73.86
65478;SHT31;53678;39.642;22.430;2024-02-16T02:08:13;7.35;73.59
65478;SHT31;53678;39.642;22.430;2024-02-16T02:10:39;7.29;73.18
65478;SHT31;53678;39.642;22.430;2024-02-16T02:13:06;7.26;73.08
65478;SHT31;53678;39.642;22.430;2024-02-16T02:15:32;7.16;73.26
65478;SHT31;53678;39.642;22.430;2024-02-16T02:17:57;7.22;73.39
65478;SHT31;53678;39.642;22.430;2024-02-16T02:20:25;7.25;72.91
65478;SHT31;53678;39.642;22.430;2024-02-16T02:22:50;7.33;72.78
65478;SHT31;53678;39.642;22.430;2024-02-16T02:25:16;7.45;72.38
65478;SHT31;53678;39.642;22.430;2024-02-16T02:27:42;7.43;72.14
65478;SHT31;53678;39.642;22.430;2024-02-16T02:30:08;7.46;71.72
65478;SHT31;53678;39.642;22.430;2024-02-16T02:32:34;7.45;71.97
65478;SHT31;53678;39.642;22.430;2024-02-16T02:35:05;7.50;71.75
65478;SHT31;53678;39.642;22.430;2024-02-16T02:37:31;7.60;71.24
65478;SHT31;53678;39.642;22.430;2024-02-16T02:39:56;7.62;70.84
65478;SHT31;53678;39.642;22.430;2024-02-16T02:42:22;7.66;70.52
65478;SHT31;53678;39.642;22.430;2024-02-16T02:44:48;7.70;70.01
65478;SHT31;53678;39.642;22.430;2024-02-16T02:47:18;7.74;69.77
65478;SHT31;53678;39.642;22.430;2024-02-16T02:49:44;7.73;69.57
65478;SHT31;53678;39.642;22.430;2024-02-16T02:52:11;7.67;69.36
65478;SHT31;53678;39.642;22.430;2024-02-16T02:54:36;7.59;69.44
65478;SHT31;53678;39.642;22.430;2024-02-16T02:57:02;7.57;69.16
65478;SHT31;53678;39.642;22.430;2024-02-16T02:59:29;7.66;69.37
65478;SHT31;53678;39.642;22.430;2024-02-16T03:01:54;6.97;72.42
65478;SHT31;53678;39.642;22.430;2024-02-16T03:04:20;7.09;71.64
65478;SHT31;53678;39.642;22.430;2024-02-16T03:06:46;7.05;71.71
65478;SHT31;53678;39.642;22.430;2024-02-16T03:09:12;6.84;73.44
65478;SHT31;53678;39.642;22.430;2024-02-16T03:11:38;6.89;72.29
65478;SHT31;53678;39.642;22.430;2024-02-16T03:14:05;6.09;75.75
65478;SHT31;53678;39.642;22.430;2024-02-16T03:16:31;6.26;75.37
65478;SHT31;53678;39.642;22.430;2024-02-16T03:18:57;6.29;75.14
65478;SHT31;53678;39.642;22.430;2024-02-16T03:21:23;6.29;75.10
65478;SHT31;53678;39.642;22.430;2024-02-16T03:23:49;6.34;74.99
65478;SHT31;53678;39.642;22.430;2024-02-16T03:26:20;6.34;74.83
65478;SHT31;53678;39.642;22.430;2024-02-16T03:28:46;5.58;78.95
65478;SHT31;53678;39.642;22.430;2024-02-16T03:31:23;5.85;76.88
65478;SHT31;53678;39.642;22.430;2024-02-16T03:33:49;5.91;76.35
65478;SHT31;53678;39.642;22.430;2024-02-16T03:36:17;5.46;78.15
65478;SHT31;53678;39.642;22.430;2024-02-16T03:38:44;5.09;79.44
65478;SHT31;53678;39.642;22.430;2024-02-16T03:41:14;5.06;79.94
65478;SHT31;53678;39.642;22.430;2024-02-16T03:43:41;4.72;80.12
65478;SHT31;53678;39.642;22.430;2024-02-16T03:46:07;4.97;79.97
65478;SHT31;53678;39.642;22.430;2024-02-16T03:48:33;5.10;79.33
65478;SHT31;53678;39.642;22.430;2024-02-16T03:51:00;5.26;79.35
65478;SHT31;53678;39.642;22.430;2024-02-16T03:53:25;5.39;78.86
65478;SHT31;53678;39.642;22.430;2024-02-16T03:55:51;5.40;77.78
65478;SHT31;53678;39.642;22.430;2024-02-16T03:58:17;5.30;78.39
65478;SHT31;53678;39.642;22.430;2024-02-16T04:00:43;5.36;78.33
65478;SHT31;53678;39.642;22.430;2024-02-16T04:03:10;5.65;77.90
65478;SHT31;53678;39.642;22.430;2024-02-16T04:05:39;5.40;77.72
65478;SHT31;53678;39.642;22.430;2024-02-16T04:08:05;5.43;77.65
65478;SHT31;53678;39.642;22.430;2024-02-16T04:10:32;5.43;77.16
65478;SHT31;53678;39.642;22.430;2024-02-16T04:12:58;5.44;77.04
65478;SHT31;53678;39.642;22.430;2024-02-16T04:15:24;5.54;77.16
65478;SHT31;53678;39.642;22.430;2024-02-16T04:17:49;5.47;76.81
65478;SHT31;53678;39.642;22.430;2024-02-16T04:20:16;5.51;77.13
65478;SHT31;53678;39.642;22.430;2024-02-16T04:22:42;5.57;76.90
65478;SHT31;53678;39.642;22.430;2024-02-16T04:25:08;5.71;76.84
65478;SHT31;53678;39.642;22.430;2024-02-16T04:27:38;5.82;76.55
65478;SHT31;53678;39.642;22.430;2024-02-16T04:30:04;5.89;76.23
65478;SHT31;53678;39.642;22.430;2024-02-16T04:32:31;5.94;76.21
65478;SHT31;53678;39.642;22.430;2024-02-16T04:34:56;5.94;76.08
65478;SHT31;53678;39.642;22.430;2024-02-16T04:37:23;6.16;76.00
65478;SHT31;53678;39.642;22.430;2024-02-16T04:39:49;6.01;75.78
65478;SHT31;53678;39.642;22.430;2024-02-16T04:42:16;5.81;76.40
65478;SHT31;53678;39.642;22.430;2024-02-16T04:44:41;5.65;76.88
65478;SHT31;53678;39.642;22.430;2024-02-16T04:47:07;5.60;77.59
65478;SHT31;53678;39.642;22.430;2024-02-16T04:49:33;5.89;76.70
65478;SHT31;53678;39.642;22.430;2024-02-16T04:51:59;5.87;75.64
65478;SHT31;53678;39.642;22.430;2024-02-16T04:54:25;5.74;77.04
65478;SHT31;53678;39.642;22.430;2024-02-16T04:56:50;5.81;77.52
65478;SHT31;53678;39.642;22.430;2024-02-16T04:59:17;5.89;77.17
65478;SHT31;53678;39.642;22.430;2024-02-16T05:01:43;6.01;76.70
65478;SHT31;53678;39.642;22.430;2024-02-16T05:04:10;6.10;76.61
65478;SHT31;53678;39.642;22.430;2024-02-16T05:06:39;5.92;76.69
65478;SHT31;53678;39.642;22.430;2024-02-16T05:09:07;6.06;76.84
65478;SHT31;53678;39.642;22.430;2024-02-16T05:11:33;5.88;76.53
65478;SHT31;53678;39.642;22.430;2024-02-16T05:13:59;5.75;76.39
65478;SHT31;53678;39.642;22.430;2024-02-16T05:16:25;5.77;76.89
65478;SHT31;53678;39.642;22.430;2024-02-16T05:18:52;5.77;76.44
65478;SHT31;53678;39.642;22.430;2024-02-16T05:21:18;5.79;76.51
65478;SHT31;53678;39.642;22.430;2024-02-16T05:23:43;5.85;76.56
65478;SHT31;53678;39.642;22.430;2024-02-16T05:26:11;6.01;75.77
65478;SHT31;53678;39.642;22.430;2024-02-16T05:28:36;6.05;75.51
65478;SHT31;53678;39.642;22.430;2024-02-16T05:31:20;6.12;75.62
65478;SHT31;53678;39.642;22.430;2024-02-16T05:33:47;6.13;75.55
65478;SHT31;53678;39.642;22.430;2024-02-16T05:36:19;6.28;74.91
65478;SHT31;53678;39.642;22.430;2024-02-16T05:38:48;6.74;74.43
65478;SHT31;53678;39.642;22.430;2024-02-16T05:41:15;7.45;72.97
65478;SHT31;53678;39.642;22.430;2024-02-16T05:43:44;8.11;70.93
65478;SHT31;53678;39.642;22.430;2024-02-16T05:46:14;8.67;69.40
65478;SHT31;53678;39.642;22.430;2024-02-16T05:48:40;9.34;67.26
65478;SHT31;53678;39.642;22.430;2024-02-16T05:51:06;8.84;67.79
65478;SHT31;53678;39.642;22.430;2024-02-16T05:53:36;8.80;67.85
65478;SHT31;53678;39.642;22.430;2024-02-16T05:56:02;8.60;69.41
65478;SHT31;53678;39.642;22.430;2024-02-16T05:58:28;8.48;69.97
65478;SHT31;53678;39.642;22.430;2024-02-16T06:00:56;8.80;67.97
65478;SHT31;53678;39.642;22.430;2024-02-16T06:03:23;9.54;67.40
65478;SHT31;53678;39.642;22.430;2024-02-16T06:05:49;9.24;67.54
65478;SHT31;53678;39.642;22.430;2024-02-16T06:08:14;9.93;67.97
65478;SHT31;53678;39.642;22.430;2024-02-16T06:10:44;9.68;68.98
65478;SHT31;53678;39.642;22.430;2024-02-16T06:13:17;10.07;66.42
65478;SHT31;53678;39.642;22.430;2024-02-16T06:15:43;11.00;66.95
65478;SHT31;53678;39.642;22.430;2024-02-16T06:18:09;11.74;62.53
65478;SHT31;53678;39.642;22.430;2024-02-16T06:20:35;12.12;62.00
65478;SHT31;53678;39.642;22.430;2024-02-16T06:23:01;12.79;60.03
65478;SHT31;53678;39.642;22.430;2024-02-16T06:25:27;12.50;60.99
65478;SHT31;53678;39.642;22.430;2024-02-16T06:27:53;12.76;60.06
65478;SHT31;53678;39.642;22.430;2024-02-16T06:30:18;10.13;65.66
65478;SHT31;53678;39.642;22.430;2024-02-16T06:32:46;9.56;69.02
65478;SHT31;53678;39.642;22.430;2024-02-16T06:35:11;9.44;69.94
65478;SHT31;53678;39.642;22.430;2024-02-16T06:37:37;9.27;68.67
65478;SHT31;53678;39.642;22.430;2024-02-16T06:40:05;9.78;68.54
65478;SHT31;53678;39.642;22.430;2024-02-16T06:42:31;8.87;68.39
65478;SHT31;53678;39.642;22.430;2024-02-16T06:44:59;9.59;70.94
65478;SHT31;53678;39.642;22.430;2024-02-16T06:47:25;11.50;65.51
65478;SHT31;53678;39.642;22.430;2024-02-16T06:49:52;12.08;64.52
65478;SHT31;53678;39.642;22.430;2024-02-16T06:52:18;12.19;60.90
65478;SHT31;53678;39.642;22.430;2024-02-16T06:54:44;11.71;63.04
65478;SHT31;53678;39.642;22.430;2024-02-16T06:57:09;12.52;61.75
65478;SHT31;53678;39.642;22.430;2024-02-16T06:59:38;12.28;62.41
65478;SHT31;53678;39.642;22.430;2024-02-16T07:02:04;13.29;60.03
65478;SHT31;53678;39.642;22.430;2024-02-16T07:04:31;12.87;59.54
65478;SHT31;53678;39.642;22.430;2024-02-16T07:06:57;11.88;61.57
65478;SHT31;53678;39.642;22.430;2024-02-16T07:09:23;12.08;59.83
65478;SHT31;53678;39.642;22.430;2024-02-16T07:11:49;12.22;59.60
65478;SHT31;53678;39.642;22.430;2024-02-16T07:14:16;11.92;60.21
65478;SHT31;53678;39.642;22.430;2024-02-16T07:16:42;11.46;60.75
65478;SHT31;53678;39.642;22.430;2024-02-16T07:19:08;11.15;61.16
65478;SHT31;53678;39.642;22.430;2024-02-16T07:21:34;11.03;61.75
65478;SHT31;53678;39.642;22.430;2024-02-16T07:24:00;10.96;63.48
65478;SHT31;53678;39.642;22.430;2024-02-16T07:26:26;10.98;62.30
65478;SHT31;53678;39.642;22.430;2024-02-16T07:28:52;10.81;61.92
65478;SHT31;53678;39.642;22.430;2024-02-16T07:31:18;10.75;62.24
65478;SHT31;53678;39.642;22.430;2024-02-16T07:33:43;11.00;60.96
65478;SHT31;53678;39.642;22.430;2024-02-16T07:36:09;11.16;60.75
65478;SHT31;53678;39.642;22.430;2024-02-16T07:38:35;11.39;60.14
65478;SHT31;53678;39.642;22.430;2024-02-16T07:41:01;11.44;59.64
65478;SHT31;53678;39.642;22.430;2024-02-16T07:43:28;12.43;62.29
65478;SHT31;53678;39.642;22.430;2024-02-16T07:45:53;14.03;64.15
65478;SHT31;53678;39.642;22.430;2024-02-16T07:48:20;14.18;58.28
65478;SHT31;53678;39.642;22.430;2024-02-16T07:50:47;13.79;56.23
65478;SHT31;53678;39.642;22.430;2024-02-16T07:53:14;14.52;54.02
65478;SHT31;53678;39.642;22.430;2024-02-16T07:55:39;13.83;52.24
65478;SHT31;53678;39.642;22.430;2024-02-16T07:58:05;13.15;53.87
65478;SHT31;53678;39.642;22.430;2024-02-16T08:00:31;13.01;54.51
65478;SHT31;53678;39.642;22.430;2024-02-16T08:02:56;12.45;54.95
65478;SHT31;53678;39.642;22.430;2024-02-16T08:05:22;12.45;56.21
65478;SHT31;53678;39.642;22.430;2024-02-16T08:07:49;12.85;56.43
65478;SHT31;53678;39.642;22.430;2024-02-16T08:10:21;12.84;60.89
65478;SHT31;53678;39.642;22.430;2024-02-16T08:12:48;12.97;61.32
65478;SHT31;53678;39.642;22.430;2024-02-16T08:15:14;11.89;62.67
65478;SHT31;53678;39.642;22.430;2024-02-16T08:17:40;11.98;62.81
65478;SHT31;53678;39.642;22.430;2024-02-16T08:20:06;12.56;61.57
65478;SHT31;53678;39.642;22.430;2024-02-16T08:22:35;12.14;61.32
65478;SHT31;53678;39.642;22.430;2024-02-16T08:25:02;12.91;60.38
65478;SHT31;53678;39.642;22.430;2024-02-16T08:27:27;13.14;61.64
65478;SHT31;53678;39.642;22.430;2024-02-16T08:29:53;13.04;61.11
65478;SHT31;53678;39.642;22.430;2024-02-16T08:32:19;12.85;60.91
65478;SHT31;53678;39.642;22.430;2024-02-16T08:34:46;12.83;60.35
65478;SHT31;53678;39.642;22.430;2024-02-16T08:37:14;12.64;60.86
65478;SHT31;53678;39.642;22.430;2024-02-16T08:39:39;12.53;63.60
65478;SHT31;53678;39.642;22.430;2024-02-16T08:42:06;12.56;62.77
65478;SHT31;53678;39.642;22.430;2024-02-16T08:44:36;12.72;62.29
65478;SHT31;53678;39.642;22.430;2024-02-16T08:47:02;12.90;61.74
65478;SHT31;53678;39.642;22.430;2024-02-16T08:49:28;13.05;61.23
65478;SHT31;53678;39.642;22.430;2024-02-16T08:51:56;13.14;61.19
65478;SHT31;53678;39.642;22.430;2024-02-16T08:54:21;13.01;61.21
65478;SHT31;53678;39.642;22.430;2024-02-16T08:56:47;13.16;60.94
65478;SHT31;53678;39.642;22.430;2024-02-16T08:59:14;13.10;60.98
65478;SHT31;53678;39.642;22.430;2024-02-16T09:01:39;13.11;61.13
65478;SHT31;53678;39.642;22.430;2024-02-16T09:04:06;13.14;60.67
65478;SHT31;53678;39.642;22.430;2024-02-16T09:06:33;13.36;59.50
65478;SHT31;53678;39.642;22.430;2024-02-16T09:09:00;13.46;59.65
65478;SHT31;53678;39.642;22.430;2024-02-16T09:11:26;13.76;59.27
65478;SHT31;53678;39.642;22.430;2024-02-16T09:13:54;14.04;59.12
65478;SHT31;53678;39.642;22.430;2024-02-16T09:16:21;13.48;59.15
65478;SHT31;53678;39.642;22.430;2024-02-16T09:18:47;13.86;59.35
65478;SHT31;53678;39.642;22.430;2024-02-16T09:21:16;14.20;57.64
65478;SHT31;53678;39.642;22.430;2024-02-16T09:23:42;14.13;58.32
65478;SHT31;53678;39.642;22.430;2024-02-16T09:26:09;14.31;61.82
65478;SHT31;53678;39.642;22.430;2024-02-16T09:28:41;14.34;57.15
65478;SHT31;53678;39.642;22.430;2024-02-16T09:31:08;14.54;56.93
65478;SHT31;53678;39.642;22.430;2024-02-16T09:33:34;14.41;57.20
65478;SHT31;53678;39.642;22.430;2024-02-16T09:36:00;14.51;56.22
65478;SHT31;53678;39.642;22.430;2024-02-16T09:38:26;14.34;56.42
65478;SHT31;53678;39.642;22.430;2024-02-16T09:40:52;14.28;57.05
65478;SHT31;53678;39.642;22.430;2024-02-16T09:43:28;14.27;56.26
65478;SHT31;53678;39.642;22.430;2024-02-16T09:45:56;14.25;56.57
65478;SHT31;53678;39.642;22.430;2024-02-16T09:48:24;14.14;57.02
65478;SHT31;53678;39.642;22.430;2024-02-16T09:50:53;14.04;58.37
65478;SHT31;53678;39.642;22.430;2024-02-16T09:53:20;13.55;58.53
65478;SHT31;53678;39.642;22.430;2024-02-16T09:55:49;13.52;58.68
65478;SHT31;53678;39.642;22.430;2024-02-16T09:58:20;12.81;59.62
65478;SHT31;53678;39.642;22.430;2024-02-16T10:00:50;13.46;58.39
65478;SHT31;53678;39.642;22.430;2024-02-16T10:03:30;13.93;56.93
65478;SHT31;53678;39.642;22.430;2024-02-16T10:06:05;14.27;55.91
65478;SHT31;53678;39.642;22.430;2024-02-16T10:08:34;14.62;55.41
65478;SHT31;53678;39.642;22.430;2024-02-16T10:11:04;14.31;55.55
65478;SHT31;53678;39.642;22.430;2024-02-16T10:13:32;14.32;56.09
65478;SHT31;53678;39.642;22.430;2024-02-16T10:16:08;14.45;55.88
65478;SHT31;53678;39.642;22.430;2024-02-16T10:18:36;14.30;55.37
65478;SHT31;53678;39.642;22.430;2024-02-16T10:21:02;14.54;54.91
65478;SHT31;53678;39.642;22.430;2024-02-16T10:23:29;14.80;56.58
65478;SHT31;53678;39.642;22.430;2024-02-16T10:25:55;14.71;53.26
65478;SHT31;53678;39.642;22.430;2024-02-16T10:28:21;13.43;54.98
65478;SHT31;53678;39.642;22.430;2024-02-16T10:31:00;13.51;55.67
65478;SHT31;53678;39.642;22.430;2024-02-16T10:33:32;13.53;55.88
65478;SHT31;53678;39.642;22.430;2024-02-16T10:35:59;14.20;54.73
65478;SHT31;53678;39.642;22.430;2024-02-16T10:38:27;14.58;53.58
65478;SHT31;53678;39.642;22.430;2024-02-16T10:40:53;14.65;53.58
65478;SHT31;53678;39.642;22.430;2024-02-16T10:43:22;14.75;55.13
65478;SHT31;53678;39.642;22.430;2024-02-16T10:45:49;14.55;54.39
65478;SHT31;53678;39.642;22.430;2024-02-16T10:48:20;14.25;54.61
65478;SHT31;53678;39.642;22.430;2024-02-16T10:50:46;13.72;55.51
65478;SHT31;53678;39.642;22.430;2024-02-16T10:53:21;14.11;54.51
65478;SHT31;53678;39.642;22.430;2024-02-16T10:55:49;14.34;54.21
65478;SHT31;53678;39.642;22.430;2024-02-16T10:58:17;14.46;53.66
65478;SHT31;53678;39.642;22.430;2024-02-16T11:00:52;14.37;53.59
65478;SHT31;53678;39.642;22.430;2024-02-16T11:03:22;14.48;53.37
65478;SHT31;53678;39.642;22.430;2024-02-16T11:05:50;14.72;52.98
65478;SHT31;53678;39.642;22.430;2024-02-16T11:08:18;14.83;53.11
65478;SHT31;53678;39.642;22.430;2024-02-16T11:11:02;14.09;53.39
65478;SHT31;53678;39.642;22.430;2024-02-16T11:13:33;14.52;52.89
65478;SHT31;53678;39.642;22.430;2024-02-16T11:16:09;14.71;53.05
65478;SHT31;53678;39.642;22.430;2024-02-16T11:18:41;14.20;53.66
65478;SHT31;53678;39.642;22.430;2024-02-16T11:21:11;14.38;52.69
65478;SHT31;53678;39.642;22.430;2024-02-16T11:23:39;14.54;52.65
65478;SHT31;53678;39.642;22.430;2024-02-16T11:26:11;14.16;53.29
65478;SHT31;53678;39.642;22.430;2024-02-16T11:28:40;14.64;52.37
65478;SHT31;53678;39.642;22.430;2024-02-16T11:31:07;14.83;51.54
65478;SHT31;53678;39.642;22.430;2024-02-16T11:33:34;14.41;52.51
65478;SHT31;53678;39.642;22.430;2024-02-16T11:36:05;14.06;52.79
65478;SHT31;53678;39.642;22.430;2024-02-16T11:38:33;13.91;53.52
65478;SHT31;53678;39.642;22.430;2024-02-16T11:41:02;13.87;53.26
65478;SHT31;53678;39.642;22.430;2024-02-16T11:43:30;13.86;53.82
65478;SHT31;53678;39.642;22.430;2024-02-16T11:45:59;13.86;53.45
65478;SHT31;53678;39.642;22.430;2024-02-16T11:48:26;13.83;53.73
65478;SHT31;53678;39.642;22.430;2024-02-16T11:51:02;14.35;52.77
65478;SHT31;53678;39.642;22.430;2024-02-16T11:53:29;14.48;54.28
65478;SHT31;53678;39.642;22.430;2024-02-16T11:55:57;14.88;56.83
65478;SHT31;53678;39.642;22.430;2024-02-16T11:58:23;14.89;53.16
65478;SHT31;53678;39.642;22.430;2024-02-16T12:00:50;14.68;54.81
65478;SHT31;53678;39.642;22.430;2024-02-16T12:03:21;14.55;55.11
65478;SHT31;53678;39.642;22.430;2024-02-16T12:05:56;14.42;55.45
65478;SHT31;53678;39.642;22.430;2024-02-16T12:08:23;14.48;56.13
65478;SHT31;53678;39.642;22.430;2024-02-16T12:10:51;14.57;55.58
65478;SHT31;53678;39.642;22.430;2024-02-16T12:13:18;14.88;54.80
65478;SHT31;53678;39.642;22.430;2024-02-16T12:15:48;14.80;54.70
65478;SHT31;53678;39.642;22.430;2024-02-16T12:18:24;15.00;54.57
65478;SHT31;53678;39.642;22.430;2024-02-16T12:21:03;15.11;54.87
65478;SHT31;53678;39.642;22.430;2024-02-16T12:23:31;14.89;55.80
65478;SHT31;53678;39.642;22.430;2024-02-16T12:25:58;15.04;57.44
65478;SHT31;53678;39.642;22.430;2024-02-16T12:28:25;14.82;59.49
65478;SHT31;53678;39.642;22.430;2024-02-16T12:30:52;14.44;56.41
65478;SHT31;53678;39.642;22.430;2024-02-16T12:33:17;14.55;53.56
65478;SHT31;53678;39.642;22.430;2024-02-16T12:35:43;14.82;54.41
65478;SHT31;53678;39.642;22.430;2024-02-16T12:38:11;15.00;53.02
65478;SHT31;53678;39.642;22.430;2024-02-16T12:40:37;15.00;52.80
65478;SHT31;53678;39.642;22.430;2024-02-16T12:43:02;14.82;53.20
65478;SHT31;53678;39.642;22.430;2024-02-16T12:45:28;14.82;52.72
65478;SHT31;53678;39.642;22.430;2024-02-16T12:47:54;14.79;53.79
65478;SHT31;53678;39.642;22.430;2024-02-16T12:50:20;14.73;57.31
65478;SHT31;53678;39.642;22.430;2024-02-16T12:52:45;14.51;59.16
65478;SHT31;53678;39.642;22.430;2024-02-16T12:55:11;14.40;59.67
65478;SHT31;53678;39.642;22.430;2024-02-16T12:57:38;14.44;59.19
65478;SHT31;53678;39.642;22.430;2024-02-16T13:00:05;14.28;59.29
65478;SHT31;53678;39.642;22.430;2024-02-16T13:02:30;14.34;56.72
65478;SHT31;53678;39.642;22.430;2024-02-16T13:04:56;14.64;54.89
65478;SHT31;53678;39.642;22.430;2024-02-16T13:07:23;14.62;55.02
65478;SHT31;53678;39.642;22.430;2024-02-16T13:09:49;14.62;58.46
65478;SHT31;53678;39.642;22.430;2024-02-16T13:12:19;14.62;59.08
65478;SHT31;53678;39.642;22.430;2024-02-16T13:14:49;14.68;60.05
65478;SHT31;53678;39.642;22.430;2024-02-16T13:17:15;14.75;59.81
65478;SHT31;53678;39.642;22.430;2024-02-16T13:19:42;14.79;59.19
65478;SHT31;53678;39.642;22.430;2024-02-16T13:22:08;14.61;59.14
65478;SHT31;53678;39.642;22.430;2024-02-16T13:24:34;14.49;59.07
65478;SHT31;53678;39.642;22.430;2024-02-16T13:27:00;14.54;59.22
65478;SHT31;53678;39.642;22.430;2024-02-16T13:29:26;14.55;59.18
65478;SHT31;53678;39.642;22.430;2024-02-16T13:31:52;14.57;59.29
65478;SHT31;53678;39.642;22.430;2024-02-16T13:34:20;14.46;59.76
65478;SHT31;53678;39.642;22.430;2024-02-16T13:36:45;14.28;59.50
65478;SHT31;53678;39.642;22.430;2024-02-16T13:39:11;14.24;59.39
65478;SHT31;53678;39.642;22.430;2024-02-16T13:41:39;14.31;58.83
65478;SHT31;53678;39.642;22.430;2024-02-16T13:44:05;14.51;58.79
65478;SHT31;53678;39.642;22.430;2024-02-16T13:46:31;14.55;58.79
65478;SHT31;53678;39.642;22.430;2024-02-16T13:48:57;14.51;59.24
65478;SHT31;53678;39.642;22.430;2024-02-16T13:51:24;14.45;59.28
65478;SHT31;53678;39.642;22.430;2024-02-16T13:53:50;14.59;59.18
65478;SHT31;53678;39.642;22.430;2024-02-16T13:56:18;14.57;59.25
65478;SHT31;53678;39.642;22.430;2024-02-16T13:58:43;14.42;59.84
65478;SHT31;53678;39.642;22.430;2024-02-16T14:01:09;14.38;59.57
65478;SHT31;53678;39.642;22.430;2024-02-16T14:03:35;14.27;59.09
65478;SHT31;53678;39.642;22.430;2024-02-16T14:06:02;14.22;59.34
65478;SHT31;53678;39.642;22.430;2024-02-16T14:08:28;14.24;59.21
65478;SHT31;53678;39.642;22.430;2024-02-16T14:10:55;14.41;59.41
65478;SHT31;53678;39.642;22.430;2024-02-16T14:13:22;14.20;59.18
65478;SHT31;53678;39.642;22.430;2024-02-16T14:15:50;14.25;59.30
65478;SHT31;53678;39.642;22.430;2024-02-16T14:18:17;14.25;59.60
65478;SHT31;53678;39.642;22.430;2024-02-16T14:20:42;14.35;59.52
65478;SHT31;53678;39.642;22.430;2024-02-16T14:23:09;14.22;59.10
65478;SHT31;53678;39.642;22.430;2024-02-16T14:25:36;14.17;59.38
65478;SHT31;53678;39.642;22.430;2024-02-16T14:28:06;14.17;59.52
65478;SHT31;53678;39.642;22.430;2024-02-16T14:30:33;14.16;59.46
65478;SHT31;53678;39.642;22.430;2024-02-16T14:32:59;14.16;59.21
65478;SHT31;53678;39.642;22.430;2024-02-16T14:35:25;14.07;59.67
65478;SHT31;53678;39.642;22.430;2024-02-16T14:37:50;14.20;59.38
65478;SHT31;53678;39.642;22.430;2024-02-16T14:40:16;14.18;58.87
65478;SHT31;53678;39.642;22.430;2024-02-16T14:42:42;14.01;59.30
65478;SHT31;53678;39.642;22.430;2024-02-16T14:45:08;14.13;59.54
65478;SHT31;53678;39.642;22.430;2024-02-16T14:47:36;14.11;59.62
65478;SHT31;53678;39.642;22.430;2024-02-16T14:50:03;14.09;59.85
65478;SHT31;53678;39.642;22.430;2024-02-16T14:52:29;14.16;59.85
65478;SHT31;53678;39.642;22.430;2024-02-16T14:54:55;14.07;59.70
65478;SHT31;53678;39.642;22.430;2024-02-16T14:57:22;14.03;59.86
65478;SHT31;53678;39.642;22.430;2024-02-16T14:59:51;13.90;59.91
65478;SHT31;53678;39.642;22.430;2024-02-16T15:02:22;13.90;60.21
65478;SHT31;53678;39.642;22.430;2024-02-16T15:04:48;13.97;60.33
65478;SHT31;53678;39.642;22.430;2024-02-16T15:07:16;13.89;59.95
65478;SHT31;53678;39.642;22.430;2024-02-16T15:09:42;13.89;59.93
65478;SHT31;53678;39.642;22.430;2024-02-16T15:12:08;13.90;60.35
65478;SHT31;53678;39.642;22.430;2024-02-16T15:14:33;13.84;60.52
65478;SHT31;53678;39.642;22.430;2024-02-16T15:17:00;13.91;60.69
65478;SHT31;53678;39.642;22.430;2024-02-16T15:19:26;13.89;60.44
65478;SHT31;53678;39.642;22.430;2024-02-16T15:21:51;13.90;60.08